Downham Market, United Kingdom
Current Conditions -  °F | °C
As of 4:50 AM on Friday 21 Nov 2014 (Local Time) from EGYM Reporting Station
Haze Haze  
Wind Chill: 44°   Ceiling: 3000
Heat Index: 46°   Visibility: 3mi
Dew Point: 43°   Wind: 6mph
Humidity: 87%   Direction: 80°E
Pressure: 30.18"   Gusts: NA
Location:  52.6°N, 0.38°E
Report Text: EGYM 210450Z 08005KT 5000 HZ BKN030 08/06 Q1022 WHT
Loading
Personal Weather Stations






























Interactive Weather Map New forecast layout! Learn more

10-Day Weather Forecast

Advertisements
Track Severe Weather on mobile